Time;durP1;ratioP1;P1;durP2;ratioP2;P2;SDS_P1;SDS_P2;PMS_P1;PMS_P2;Temp;Humidity;BMP_temperature;BMP_pressure;BME280_temperature;BME280_humidity;BME280_pressure;Samples;Min_cycle;Max_cycle;Signal;HPM_P1;HPM_P2
2023/04/12 00:01:59;;;;;;;3.70;2.05;;;;;;;-148.88;83.23;76085.97;5061669;28;20487;-83
2023/04/12 00:04:27;;;;;;;3.25;1.73;;;;;;;-148.88;83.63;76085.97;5060963;28;20043;-82
2023/04/12 00:06:53;;;;;;;6.78;2.25;;;;;;;-148.88;83.82;76081.91;5062008;28;20020;-83
2023/04/12 00:09:19;;;;;;;5.55;2.30;;;;;;;-148.88;84.41;76090.03;5061949;28;20031;-83
2023/04/12 00:11:47;;;;;;;6.38;1.83;;;;;;;-148.88;84.58;76077.84;5060641;28;20025;-82
2023/04/12 00:14:12;;;;;;;6.65;2.83;;;;;;;-148.88;84.39;76075.81;5060757;28;20021;-83
2023/04/12 00:19:29;;;;;;;8.52;2.17;;;;;;;-148.88;85.00;76069.72;5065699;28;20036;-82
2023/04/12 00:21:55;;;;;;;4.88;1.90;;;;;;;-148.88;85.15;76059.56;5065860;28;20024;-84
2023/04/12 00:24:35;;;;;;;;;;;;;;;;;;;;;
2023/04/12 00:27:02;;;;;;;5.68;1.92;;;;;;;-148.88;85.52;76057.53;5059524;28;20108;-83
2023/04/12 00:29:31;;;;;;;10.27;2.90;;;;;;;-148.88;85.93;76059.56;5056761;28;20044;-84
2023/04/12 00:31:57;;;;;;;5.45;1.67;;;;;;;-148.88;86.45;76053.47;5058071;28;20040;-83
2023/04/12 00:34:31;;;;;;;4.55;2.33;;;;;;;-148.88;86.87;76053.47;5058416;28;20025;-82
2023/04/12 00:36:56;;;;;;;8.40;2.03;;;;;;;-148.88;86.73;76041.28;5058920;28;20104;-83
2023/04/12 00:39:24;;;;;;;4.25;1.60;;;;;;;-148.88;86.59;76033.16;5057253;28;20056;-81
2023/04/12 00:41:56;;;;;;;6.07;1.70;;;;;;;-148.88;86.76;76039.25;5059341;28;20021;-83
2023/04/12 00:44:24;;;;;;;7.40;1.73;;;;;;;-148.88;86.92;76037.22;5058451;28;20036;-81
2023/04/12 00:46:53;;;;;;;7.60;2.00;;;;;;;-148.88;86.79;76039.25;5058366;28;20025;-83
2023/04/12 00:49:29;;;;;;;8.25;1.75;;;;;;;-148.88;86.42;76025.03;5058248;28;20372;-84
2023/04/12 00:52:03;;;;;;;6.45;1.67;;;;;;;-148.88;87.21;76025.03;5059287;28;20021;-83
2023/04/12 00:54:32;;;;;;;;;;;;;;;-148.88;87.28;76023.00;5060494;28;20036;-83
2023/04/12 00:57:03;;;;;;;3.90;1.50;;;;;;;-148.88;88.11;76023.00;5057963;28;20277;-83
2023/04/12 00:59:28;;;;;;;6.07;1.65;;;;;;;-148.88;88.77;76020.97;5058225;28;20537;-83
2023/04/12 01:01:58;;;;;;;4.68;2.13;;;;;;;-148.88;88.99;76016.91;5059521;28;20036;-83
2023/04/12 01:04:25;;;;;;;11.05;2.25;;;;;;;-148.88;88.81;76008.78;5058279;28;20021;-83
2023/04/12 01:07:27;;;;;;;9.13;1.70;;;;;;;-148.88;88.87;76006.75;5058563;28;20029;-83
2023/04/12 01:10:09;;;;;;;6.30;2.13;;;;;;;-148.88;88.26;75996.59;5058829;28;20496;-83
2023/04/12 01:13:14;;;;;;;3.33;1.63;;;;;;;-148.88;88.50;75986.44;5056017;28;20041;-83
2023/04/12 01:15:52;;;;;;;5.20;1.73;;;;;;;-148.88;88.25;75978.31;4997037;28;20027;-83
2023/04/12 01:18:24;;;;;;;7.50;1.92;;;;;;;-148.88;88.33;75972.22;5052040;28;20033;-82
2023/04/12 01:21:00;;;;;;;6.45;2.22;;;;;;;-148.88;88.92;75970.19;5060544;28;20055;-83
2023/04/12 01:23:44;;;;;;;5.00;1.73;;;;;;;-148.88;88.26;75960.03;5059303;28;20484;-82
2023/04/12 01:26:21;;;;;;;;;;;;;;;-148.88;88.43;75958.00;5060695;28;20029;-83
2023/04/12 01:28:52;;;;;;;5.38;2.10;;;;;;;-148.88;88.45;75949.88;5058252;28;19912;-84
2023/04/12 01:31:19;;;;;;;7.40;2.10;;;;;;;-148.88;87.66;75943.78;5060458;28;20494;-83
2023/04/12 01:33:46;;;;;;;8.43;2.20;;;;;;;-148.88;87.53;75931.59;5059981;28;20029;-83
2023/04/12 01:36:17;;;;;;;4.50;2.00;;;;;;;-148.88;87.54;75923.47;5060088;28;20491;-83
2023/04/12 01:38:47;;;;;;;6.22;1.80;;;;;;;-148.88;86.47;75913.31;5057851;28;20029;-84
2023/04/12 01:41:12;;;;;;;6.68;1.90;;;;;;;-148.88;86.21;75905.19;5058183;28;20028;-84
2023/04/12 01:43:45;;;;;;;7.85;2.72;;;;;;;-148.88;85.88;75895.03;5059263;28;20100;-83
2023/04/12 01:46:13;;;;;;;6.88;2.25;;;;;;;-148.88;85.44;75880.81;5058320;28;20120;-83
2023/04/12 01:48:49;;;;;;;6.20;1.77;;;;;;;-148.88;85.17;75876.75;5057735;28;20390;-83
2023/04/12 01:51:28;;;;;;;7.60;2.17;;;;;;;-148.88;84.60;75872.69;5057938;28;20029;-83
2023/04/12 01:54:09;;;;;;;4.00;1.80;;;;;;;-148.88;84.78;75870.66;5059172;28;20394;-83
2023/04/12 01:56:43;;;;;;;7.43;2.45;;;;;;;-148.88;85.51;75872.69;5057580;28;20033;-83
2023/04/12 01:59:20;;;;;;;6.90;2.00;;;;;;;-148.88;85.98;75866.59;5058488;28;20048;-82
2023/04/12 02:01:47;;;;;;;8.10;1.67;;;;;;;-148.88;85.67;75866.59;5058125;28;20025;-83
2023/04/12 02:04:20;;;;;;;3.92;1.88;;;;;;;-148.88;85.43;75866.59;5059275;28;20033;-83
2023/04/12 02:06:52;;;;;;;7.45;2.50;;;;;;;-148.88;84.76;75862.53;5059101;28;20031;-83
2023/04/12 02:09:18;;;;;;;5.57;1.77;;;;;;;-148.88;85.41;75862.53;5058154;28;20388;-83
2023/04/12 02:11:49;;;;;;;5.70;2.00;;;;;;;-148.88;86.03;75868.63;5056703;28;20513;-84
2023/04/12 02:14:15;;;;;;;6.82;1.80;;;;;;;-148.88;86.98;75872.69;5057719;28;20035;-83
2023/04/12 02:16:46;;;;;;;5.55;2.17;;;;;;;-148.88;87.76;75874.72;5057223;28;20056;-83
2023/04/12 02:19:12;;;;;;;6.75;1.90;;;;;;;-148.88;88.84;75866.59;5060685;28;20379;-84
2023/04/12 02:21:42;;;;;;;8.95;2.10;;;;;;;-148.88;88.97;75866.59;5060537;28;20479;-83
2023/04/12 02:24:14;;;;;;;6.38;2.03;;;;;;;-148.88;89.04;75862.53;5056192;28;20065;-82
2023/04/12 02:26:39;;;;;;;9.23;2.35;;;;;;;-148.88;88.97;75854.41;5057447;28;20051;-82
2023/04/12 02:29:11;;;;;;;5.85;2.25;;;;;;;-148.88;89.15;75846.28;5058505;28;20022;-84
2023/04/12 02:31:40;;;;;;;3.95;2.08;;;;;;;-148.88;89.07;75846.28;5057614;28;20060;-83
2023/04/12 02:34:06;;;;;;;5.03;2.22;;;;;;;-148.88;89.03;75836.13;5059555;28;20052;-83
2023/04/12 02:36:36;;;;;;;10.23;1.80;;;;;;;-148.88;89.06;75834.09;5057420;28;20070;-83
2023/04/12 02:39:04;;;;;;;6.70;1.95;;;;;;;-148.88;88.55;75825.97;5059525;28;20061;-83
2023/04/12 02:41:29;;;;;;;9.52;2.47;;;;;;;-148.88;88.70;75830.03;5058607;28;20553;-83
2023/04/12 02:43:55;;;;;;;5.05;2.00;;;;;;;-148.88;88.29;75821.91;5057385;28;20017;-83
2023/04/12 02:46:25;;;;;;;5.32;2.40;;;;;;;-148.88;88.58;75813.78;5058316;28;20162;-82
2023/04/12 02:48:51;;;;;;;3.83;1.73;;;;;;;-148.88;88.77;75799.56;5058015;28;20036;-84
2023/04/12 02:51:16;;;;;;;3.97;1.90;;;;;;;-148.88;88.77;75801.59;5059369;28;20025;-83
2023/04/12 02:53:42;;;;;;;5.70;2.00;;;;;;;-148.88;88.21;75789.41;5058956;28;20383;-83
2023/04/12 02:56:11;;;;;;;6.97;1.90;;;;;;;-148.88;88.30;75791.44;5057493;28;20025;-84
2023/04/12 02:58:41;;;;;;;5.40;2.13;;;;;;;-148.88;89.04;75787.38;5055953;28;20025;-83
2023/04/12 03:01:06;;;;;;;7.22;2.33;;;;;;;-148.88;88.59;75773.16;5054808;28;20021;-83
2023/04/12 03:03:37;;;;;;;9.57;1.95;;;;;;;-148.88;88.90;75779.25;5057097;28;20452;-82
2023/04/12 03:06:12;;;;;;;4.60;2.13;;;;;;;-148.88;88.45;75773.16;5056280;28;20069;-83
2023/04/12 03:08:44;;;;;;;8.93;2.00;;;;;;;-148.88;87.97;75760.97;5057867;28;20123;-84
2023/04/12 03:11:09;;;;;;;4.93;1.45;;;;;;;-148.88;87.43;75748.78;5058768;28;20035;-83
2023/04/12 03:13:37;;;;;;;5.80;2.13;;;;;;;-148.88;87.28;75740.66;5057850;28;20025;-82
2023/04/12 03:16:20;;;;;;;8.32;1.95;;;;;;;-148.88;86.94;75734.56;5058193;28;20027;-83
2023/04/12 03:18:46;;;;;;;8.60;1.70;;;;;;;-148.88;86.46;75714.25;5058730;28;20054;-82
2023/04/12 03:21:11;;;;;;;5.50;1.75;;;;;;;-148.88;85.81;75708.16;5058239;28;20118;-83
2023/04/12 03:23:36;;;;;;;8.60;1.70;;;;;;;-148.88;85.64;75704.09;5057991;28;20035;-83
2023/04/12 03:26:11;;;;;;;4.80;2.00;;;;;;;-148.88;85.78;75693.94;5058924;28;20035;-83
2023/04/12 03:28:44;;;;;;;7.68;2.17;;;;;;;-148.88;85.15;75685.81;5059041;28;20021;-84
2023/04/12 03:31:11;;;;;;;7.05;1.83;;;;;;;-148.88;85.08;75677.69;5059707;28;20033;-83
2023/04/12 03:33:40;;;;;;;7.07;2.05;;;;;;;-148.88;85.18;75675.66;5056652;28;20056;-83
2023/04/12 03:36:06;;;;;;;5.50;1.85;;;;;;;-148.88;85.35;75667.53;5052754;28;20505;-82
2023/04/12 03:38:31;;;;;;;3.80;1.70;;;;;;;-148.88;84.76;75663.47;5052928;28;20029;-84
2023/04/12 03:41:00;;;;;;;8.05;1.80;;;;;;;-148.88;85.16;75667.53;5057395;28;20021;-80
2023/04/12 03:43:26;;;;;;;6.00;2.22;;;;;;;-148.88;85.47;75663.47;5057886;28;20124;-83
2023/04/12 03:45:54;;;;;;;4.60;1.70;;;;;;;-148.88;85.44;75647.22;5059569;28;20060;-82
2023/04/12 03:48:20;;;;;;;5.35;1.55;;;;;;;-148.88;85.53;75628.94;5059538;28;20025;-82
2023/04/12 03:50:47;;;;;;;6.50;1.60;;;;;;;-148.88;85.27;75618.78;5057356;28;20059;-84
2023/04/12 03:53:13;;;;;;;8.13;2.00;;;;;;;-148.88;86.47;75600.50;5058784;28;20092;-84
2023/04/12 03:55:42;;;;;;;4.32;1.40;;;;;;;-148.88;87.70;75586.31;5058065;28;20056;-85
2023/04/12 03:58:07;;;;;;;4.53;1.50;;;;;;;-148.88;88.40;75580.22;5056945;28;20084;-84
2023/04/12 04:00:32;;;;;;;8.18;1.63;;;;;;;-148.88;88.80;75570.03;5060457;28;20028;-84
2023/04/12 04:03:01;;;;;;;8.00;1.40;;;;;;;-148.88;90.06;75561.94;5062653;28;20035;-84
2023/04/12 04:05:30;;;;;;;2.90;1.23;;;;;;;-148.88;90.31;75553.81;5060831;28;20039;-84
2023/04/12 04:08:01;;;;;;;7.60;1.50;;;;;;;-148.88;90.41;75543.66;5062965;28;20016;-84
2023/04/12 04:10:29;;;;;;;8.25;1.40;;;;;;;-148.88;90.90;75537.56;5059077;28;20479;-83
2023/04/12 04:12:55;;;;;;;4.53;1.15;;;;;;;-148.88;90.89;75527.41;5059225;28;20070;-84
2023/04/12 04:15:20;;;;;;;10.10;2.38;;;;;;;-148.88;91.39;75521.31;5062288;28;20040;-82
2023/04/12 04:17:47;;;;;;;4.45;1.10;;;;;;;-148.88;91.96;75509.13;5062630;28;20025;-83
2023/04/12 04:20:17;;;;;;;5.28;1.25;;;;;;;-148.88;92.96;75505.06;5060760;28;20048;-84
2023/04/12 04:23:18;;;;;;;8.90;1.33;;;;;;;-148.88;93.02;75505.06;5061408;28;20044;-84
2023/04/12 04:25:45;;;;;;;4.88;1.33;;;;;;;-148.88;93.63;75488.81;5061289;28;20021;-83
2023/04/12 04:28:10;;;;;;;5.38;1.58;;;;;;;-148.88;92.33;75474.59;5061235;28;20032;-84
2023/04/12 04:30:37;;;;;;;5.60;1.10;;;;;;;-148.88;92.56;75472.56;5061862;28;20029;-84
2023/04/12 04:33:04;;;;;;;3.13;1.20;;;;;;;-148.88;92.56;75468.50;5061220;28;20055;-85
2023/04/12 04:35:30;;;;;;;8.55;1.50;;;;;;;-148.88;92.65;75460.38;5059791;28;20124;-83
2023/04/12 04:38:01;;;;;;;7.68;1.75;;;;;;;-148.88;93.12;75452.25;5061758;28;20036;-82
2023/04/12 04:40:41;;;;;;;4.25;1.23;;;;;;;-148.88;92.48;75448.19;5061997;28;20056;-84
2023/04/12 04:43:12;;;;;;;8.80;1.63;;;;;;;-148.88;92.56;75433.97;5061232;28;20024;-84
2023/04/12 04:45:40;;;;;;;4.57;1.27;;;;;;;-148.88;92.90;75433.97;5058217;28;20020;-83
2023/04/12 04:48:11;;;;;;;5.28;1.23;;;;;;;-148.88;92.55;75421.78;5059091;28;20028;-85
2023/04/12 04:50:47;;;;;;;6.80;1.40;;;;;;;-148.88;92.16;75417.72;5059424;28;20044;-82
2023/04/12 04:53:12;;;;;;;5.40;1.10;;;;;;;-148.88;91.94;75419.75;5059789;28;20056;-85
2023/04/12 04:55:44;;;;;;;4.90;1.20;;;;;;;-148.88;91.28;75409.59;5059544;28;20033;-88
2023/04/12 04:58:17;;;;;;;5.50;1.58;;;;;;;-148.88;90.89;75399.44;5054734;28;20078;-88
2023/04/12 05:00:47;;;;;;;4.05;1.20;;;;;;;-148.88;90.75;75391.31;5055609;28;20029;-87
2023/04/12 05:03:12;;;;;;;3.33;1.13;;;;;;;-148.88;90.48;75391.31;5061680;22;20049;-76
2023/04/12 05:05:38;;;;;;;7.93;1.52;;;;;;;-148.88;90.17;75391.31;5054834;28;20040;-76
2023/04/12 05:08:03;;;;;;;3.42;1.10;;;;;;;-148.88;90.33;75389.28;5053710;28;20445;-76
2023/04/12 05:10:29;;;;;;;6.80;1.13;;;;;;;-148.88;90.65;75379.13;5054113;28;20021;-79
2023/04/12 05:12:54;;;;;;;6.35;1.50;;;;;;;-148.88;90.23;75379.13;5054298;28;20024;-76
2023/04/12 05:15:20;;;;;;;6.25;1.55;;;;;;;-148.88;88.86;75366.94;5055314;28;20021;-75
2023/04/12 05:17:45;;;;;;;4.80;1.17;;;;;;;-148.88;88.80;75364.91;5053467;28;20076;-75
2023/04/12 05:20:10;;;;;;;5.80;1.35;;;;;;;-148.88;88.95;75356.78;5054705;28;20029;-75
2023/04/12 05:22:36;;;;;;;5.38;1.35;;;;;;;-148.88;89.35;75354.75;5054644;28;20020;-75
2023/04/12 05:25:02;;;;;;;4.47;1.20;;;;;;;-148.88;89.44;75350.69;5054685;28;20021;-75
2023/04/12 05:27:28;;;;;;;4.88;1.13;;;;;;;-148.88;90.19;75342.56;5054723;28;20025;-75
2023/04/12 05:29:55;;;;;;;6.18;1.70;;;;;;;-148.88;88.90;75330.38;5053278;28;20071;-75
2023/04/12 05:32:20;;;;;;;5.50;1.20;;;;;;;-148.88;87.79;75322.25;5054520;28;20017;-75
2023/04/12 05:34:46;;;;;;;2.78;1.05;;;;;;;-148.88;88.17;75314.13;5053449;28;20040;-75
2023/04/12 05:37:11;;;;;;;6.50;1.55;;;;;;;-148.88;88.74;75316.16;5054368;28;20025;-75
2023/04/12 05:39:37;;;;;;;4.15;1.20;;;;;;;-148.88;88.12;75306.00;5054501;28;20117;-76
2023/04/12 05:42:03;;;;;;;4.00;1.40;;;;;;;-148.88;87.68;75301.94;5054281;28;20466;-75
2023/04/12 05:44:28;;;;;;;7.03;1.73;;;;;;;-148.88;88.20;75297.88;5052897;28;20075;-75
2023/04/12 05:46:53;;;;;;;4.63;1.17;;;;;;;-148.88;88.03;75293.81;5052939;28;20025;-75
2023/04/12 05:49:21;;;;;;;5.93;1.70;;;;;;;-148.88;88.55;75295.84;5054364;28;20048;-76
2023/04/12 05:51:46;;;;;;;4.30;1.30;;;;;;;-148.88;88.85;75289.75;5054027;28;20036;-75
2023/04/12 05:54:12;;;;;;;4.35;1.25;;;;;;;-148.88;88.49;75281.66;5054044;28;20024;-76
2023/04/12 05:56:37;;;;;;;4.32;1.05;;;;;;;-148.88;89.17;75279.59;5054327;28;20108;-76
2023/04/12 05:59:04;;;;;;;5.15;1.33;;;;;;;-148.88;89.41;75277.59;5052645;28;20021;-75
2023/04/12 06:01:32;;;;;;;4.38;1.83;;;;;;;-148.88;89.46;75267.44;5053998;28;20024;-76
2023/04/12 06:03:57;;;;;;;3.05;1.40;;;;;;;-148.88;89.75;75263.38;5052454;28;20028;-75
2023/04/12 06:06:23;;;;;;;5.10;1.20;;;;;;;-148.88;90.30;75259.31;5054104;28;20032;-76
2023/04/12 06:08:48;;;;;;;4.03;1.10;;;;;;;-148.88;90.68;75261.34;5052521;28;20044;-76
2023/04/12 06:11:15;;;;;;;5.07;1.50;;;;;;;-148.88;91.09;75261.34;5054263;28;20429;-75
2023/04/12 06:13:40;;;;;;;8.55;2.20;;;;;;;-148.88;91.07;75257.28;5054065;28;20479;-75
2023/04/12 06:16:05;;;;;;;4.97;1.40;;;;;;;-148.88;91.61;75253.22;5053694;28;20032;-75
2023/04/12 06:18:31;;;;;;;4.55;1.40;;;;;;;-148.88;91.22;75247.13;5053509;28;20017;-76
2023/04/12 06:20:56;;;;;;;4.68;1.70;;;;;;;-148.88;91.80;75245.09;5054155;28;20108;-76
2023/04/12 06:23:21;;;;;;;4.72;1.77;;;;;;;-148.88;91.83;75241.03;5053278;28;20025;-75
2023/04/12 06:25:47;;;;;;;5.63;1.40;;;;;;;-148.88;91.20;75232.91;5053122;28;20115;-76
2023/04/12 06:28:13;;;;;;;6.60;1.20;;;;;;;-148.88;91.45;75218.69;5053502;28;20024;-76
2023/04/12 06:30:38;;;;;;;4.45;1.63;;;;;;;-148.88;91.31;75212.59;5052119;28;20028;-76
2023/04/12 06:33:03;;;;;;;5.28;1.50;;;;;;;-148.88;92.02;75200.41;5052091;28;20031;-75
2023/04/12 06:35:28;;;;;;;5.57;1.67;;;;;;;-148.88;91.36;75196.34;5053215;28;20490;-76
2023/04/12 06:37:54;;;;;;;4.38;1.45;;;;;;;-148.88;91.17;75192.28;5053119;28;20029;-75
2023/04/12 06:40:19;;;;;;;7.28;2.15;;;;;;;-148.88;91.36;75186.19;5052042;28;20033;-76
2023/04/12 06:42:45;;;;;;;5.30;1.60;;;;;;;-148.88;91.80;75171.97;5053718;28;20032;-75
2023/04/12 06:45:10;;;;;;;6.38;1.77;;;;;;;-148.88;91.86;75178.06;5053097;28;20028;-76
2023/04/12 06:47:35;;;;;;;3.53;1.58;;;;;;;-148.88;92.43;75167.91;5053842;28;20024;-75
2023/04/12 06:50:01;;;;;;;3.95;1.50;;;;;;;-148.88;92.29;75163.84;5053362;28;20387;-76
2023/04/12 06:52:27;;;;;;;4.30;1.58;;;;;;;-148.88;92.77;75165.88;5053206;28;20036;-76
2023/04/12 06:54:53;;;;;;;4.95;1.38;;;;;;;-148.88;92.90;75169.94;5053071;28;20033;-75
2023/04/12 06:57:18;;;;;;;3.63;1.50;;;;;;;-148.88;94.09;75167.91;5053062;28;20104;-75
2023/04/12 07:00:02;;;;;;;4.53;1.75;;;;;;;-148.88;95.35;75167.91;5053872;28;20136;-75
2023/04/12 07:02:27;;;;;;;;;;;;;;;-148.88;95.96;75155.72;5052276;28;20060;-75
2023/04/12 07:04:53;;;;;;;5.10;1.43;;;;;;;-148.88;97.88;75176.03;5051559;28;19951;-75
2023/04/12 07:07:19;;;;;;;2.47;1.25;;;;;;;-148.88;98.84;75180.09;5051540;28;20254;-75
2023/04/12 07:09:46;;;;;;;4.95;1.58;;;;;;;-148.88;99.25;75178.06;5051754;28;20080;-74
2023/04/12 07:12:11;;;;;;;2.90;1.10;;;;;;;-148.88;99.18;75174.00;5052971;28;20052;-74
2023/04/12 07:14:37;;;;;;;6.82;1.67;;;;;;;-148.88;99.10;75169.94;5052793;28;20049;-74
2023/04/12 07:17:02;;;;;;;6.32;1.27;;;;;;;-148.88;100.00;75169.94;5052764;28;20340;-74
2023/04/12 07:19:29;;;;;;;5.40;1.40;;;;;;;-148.88;100.00;75176.03;5052602;28;20021;-74
2023/04/12 07:21:55;;;;;;;6.15;1.60;;;;;;;-148.88;100.00;75176.03;5052974;28;20484;-74
2023/04/12 07:24:20;;;;;;;5.82;2.80;;;;;;;-148.88;100.00;75178.06;5053450;28;20039;-74
2023/04/12 07:26:45;;;;;;;3.15;1.50;;;;;;;-148.88;100.00;75174.00;5053273;28;20028;-75
2023/04/12 07:29:11;;;;;;;5.60;1.45;;;;;;;-148.88;100.00;75180.09;5053259;28;20436;-75
2023/04/12 07:31:36;;;;;;;3.78;1.73;;;;;;;-148.88;100.00;75192.28;5051352;28;20083;-75
2023/04/12 07:34:01;;;;;;;4.18;1.60;;;;;;;-148.88;100.00;75190.25;5052610;28;20158;-75
2023/04/12 07:36:26;;;;;;;5.63;1.80;;;;;;;-148.88;100.00;75194.31;5055473;28;20097;-75
2023/04/12 07:38:54;;;;;;;7.25;1.88;;;;;;;-148.88;100.00;75196.34;5055216;28;20021;-74
2023/04/12 07:41:20;;;;;;;3.75;1.90;;;;;;;-148.88;100.00;75200.41;5055318;28;20036;-74
2023/04/12 07:43:45;;;;;;;5.88;1.83;;;;;;;-148.88;100.00;75196.34;5056822;28;20017;-74
2023/04/12 07:46:11;;;;;;;6.65;1.90;;;;;;;-148.88;100.00;75192.28;5055232;28;20031;-74
2023/04/12 07:48:36;;;;;;;3.72;1.80;;;;;;;-148.88;100.00;75196.34;5055286;28;20108;-75
2023/04/12 07:51:02;;;;;;;4.72;1.88;;;;;;;-148.88;100.00;75186.19;5056333;28;20029;-75
2023/04/12 07:53:27;;;;;;;6.22;2.22;;;;;;;-148.88;100.00;75180.09;5056230;28;20021;-74
2023/04/12 07:55:54;;;;;;;3.95;2.00;;;;;;;-148.88;100.00;75167.91;5056149;28;20032;-75
2023/04/12 07:58:21;;;;;;;5.22;2.25;;;;;;;-148.88;100.00;75163.84;5056291;28;20069;-75
2023/04/12 08:00:47;;;;;;;4.47;2.45;;;;;;;-148.88;100.00;75153.69;5056674;28;20036;-75
2023/04/12 08:03:14;;;;;;;5.15;3.10;;;;;;;-148.88;100.00;75159.78;5056488;28;20024;-74
2023/04/12 08:05:40;;;;;;;5.60;2.50;;;;;;;-148.88;100.00;75141.50;5056298;28;20040;-75
2023/04/12 08:08:07;;;;;;;5.68;2.63;;;;;;;-148.88;100.00;75133.38;5056103;28;20025;-75
2023/04/12 08:10:33;;;;;;;5.00;2.20;;;;;;;-148.88;100.00;75131.34;5056330;28;20052;-74
2023/04/12 08:12:58;;;;;;;8.48;2.83;;;;;;;-148.88;100.00;75135.41;5056020;28;20029;-75
2023/04/12 08:15:23;;;;;;;5.65;2.42;;;;;;;-148.88;100.00;75143.53;5055855;28;20136;-75
2023/04/12 08:17:49;;;;;;;6.05;2.42;;;;;;;-148.88;100.00;75143.53;5055834;28;20491;-75
2023/04/12 08:20:14;;;;;;;4.53;2.75;;;;;;;-148.88;100.00;75139.47;5055857;28;20170;-75
2023/04/12 08:22:41;;;;;;;6.53;3.00;;;;;;;-148.88;100.00;75131.34;5055908;28;20467;-75
2023/04/12 08:25:07;;;;;;;5.60;3.70;;;;;;;-148.88;100.00;75133.38;5056101;28;20029;-74
2023/04/12 08:27:33;;;;;;;4.80;2.63;;;;;;;-148.88;100.00;75123.22;5055790;28;20024;-75
2023/04/12 08:29:58;;;;;;;5.10;2.80;;;;;;;-148.88;100.00;75127.28;5055981;28;20387;-75
2023/04/12 08:32:23;;;;;;;5.32;2.92;;;;;;;-148.88;100.00;75125.25;5055602;28;20279;-75
2023/04/12 08:34:48;;;;;;;5.95;2.63;;;;;;;-148.88;100.00;75131.34;5055496;28;20498;-75
2023/04/12 08:37:14;;;;;;;5.20;3.05;;;;;;;-148.88;100.00;75135.41;5054339;28;20035;-74
2023/04/12 08:39:39;;;;;;;4.70;2.70;;;;;;;-148.88;100.00;75133.38;5054454;28;20117;-75
2023/04/12 08:42:05;;;;;;;5.55;2.97;;;;;;;-148.88;100.00;75131.34;5055736;28;20087;-75
2023/04/12 08:44:38;;;;;;;6.75;3.08;;;;;;;-148.88;100.00;75117.13;5055364;28;20017;-75
2023/04/12 08:47:05;;;;;;;8.30;2.80;;;;;;;-148.88;100.00;75119.16;5054316;28;20033;-75
2023/04/12 08:49:32;;;;;;;5.95;3.17;;;;;;;-148.88;100.00;75098.84;5055726;28;20487;-75
2023/04/12 08:52:04;;;;;;;5.05;3.08;;;;;;;-148.88;100.00;75088.72;5053968;28;20487;-76
2023/04/12 08:54:30;;;;;;;10.77;3.95;;;;;;;-148.88;100.00;75072.47;5054540;28;20024;-75
2023/04/12 08:56:58;;;;;;;4.97;3.10;;;;;;;-148.88;100.00;75066.38;5053878;28;20070;-75
2023/04/12 08:59:29;;;;;;;5.55;3.03;;;;;;;-148.88;100.00;75064.34;5055054;28;20052;-75
2023/04/12 09:01:55;;;;;;;6.95;3.30;;;;;;;-148.88;100.00;75054.19;5053724;28;20045;-75
2023/04/12 09:04:21;;;;;;;4.75;2.83;;;;;;;-148.88;100.00;75060.28;5055204;28;20029;-75
2023/04/12 09:06:46;;;;;;;8.63;3.10;;;;;;;-148.88;100.00;75033.88;5054991;28;20025;-76
2023/04/12 09:09:11;;;;;;;4.75;2.83;;;;;;;-148.88;100.00;75031.84;5054910;28;20028;-75
2023/04/12 09:11:37;;;;;;;3.92;2.63;;;;;;;-148.88;100.00;75033.88;5054913;28;20387;-75
2023/04/12 09:14:03;;;;;;;4.55;2.83;;;;;;;-148.88;100.00;75033.88;5055409;28;20024;-74
2023/04/12 09:16:41;;;;;;;4.85;2.67;;;;;;;-148.88;100.00;75033.88;5053656;28;20028;-75
2023/04/12 09:19:07;;;;;;;4.50;2.97;;;;;;;-148.88;100.00;75031.84;5053497;28;20017;-75
2023/04/12 09:21:33;;;;;;;7.25;3.40;;;;;;;-148.88;100.00;75037.94;5055058;28;20495;-76
2023/04/12 09:24:08;;;;;;;5.28;2.95;;;;;;;-148.88;100.00;75025.75;5054658;28;20078;-76
2023/04/12 09:26:34;;;;;;;7.85;2.72;;;;;;;-148.88;100.00;75021.69;5054572;28;20032;-75
2023/04/12 09:29:00;;;;;;;5.35;2.50;;;;;;;-148.88;100.00;75001.38;5054546;28;20025;-75
2023/04/12 09:31:25;;;;;;;3.58;2.35;;;;;;;-148.88;100.00;74999.34;5054528;28;20028;-75
2023/04/12 09:33:51;;;;;;;4.18;2.78;;;;;;;-148.88;100.00;74985.13;5054465;28;20484;-75
2023/04/12 09:36:17;;;;;;;3.70;2.10;;;;;;;-148.88;100.00;74985.13;5053151;28;20036;-75
2023/04/12 09:39:04;;;;;;;4.65;2.25;;;;;;;-148.88;100.00;74985.13;5054341;28;20013;-75
2023/04/12 09:41:30;;;;;;;3.90;2.83;;;;;;;-148.88;100.00;74970.91;5054387;28;20480;-75
2023/04/12 09:43:57;;;;;;;3.58;2.25;;;;;;;-148.88;100.00;74977.00;5052850;28;20029;-76
2023/04/12 09:46:23;;;;;;;4.07;3.00;;;;;;;-148.88;100.00;74954.66;5054136;28;20028;-75
2023/04/12 09:48:52;;;;;;;6.00;1.88;;;;;;;-148.88;100.00;74956.69;5053252;28;20017;-76
2023/04/12 09:51:32;;;;;;;4.70;2.40;;;;;;;-148.88;100.00;74946.53;5053346;28;20078;-75
2023/04/12 09:54:00;;;;;;;2.97;1.67;;;;;;;-148.88;100.00;74946.53;5054185;28;20028;-75
2023/04/12 09:56:33;;;;;;;3.53;1.80;;;;;;;-148.88;100.00;74934.38;5054076;28;20119;-75
2023/04/12 09:59:03;;;;;;;3.08;2.05;;;;;;;-148.88;100.00;74922.19;5052431;28;20479;-76
2023/04/12 10:01:34;;;;;;;5.00;2.28;;;;;;;-148.88;100.00;74905.94;5054079;28;20033;-76
2023/04/12 10:04:00;;;;;;;2.75;1.70;;;;;;;-148.88;100.00;74903.91;5051985;28;20063;-76
2023/04/12 10:06:26;;;;;;;5.25;2.35;;;;;;;-148.88;100.00;74893.75;5052609;28;20479;-75
2023/04/12 10:08:54;;;;;;;3.25;1.73;;;;;;;-148.88;100.00;74855.16;5052635;28;20044;-76
2023/04/12 10:11:20;;;;;;;5.00;2.10;;;;;;;-148.88;100.00;74869.38;5054041;28;20024;-76
2023/04/12 10:13:48;;;;;;;3.30;1.63;;;;;;;-148.88;100.00;74871.41;5052340;28;20017;-77
2023/04/12 10:16:15;;;;;;;3.00;1.80;;;;;;;-148.88;100.00;74855.16;5052693;28;20368;-76
2023/04/12 10:18:41;;;;;;;3.72;1.77;;;;;;;-148.88;100.00;74830.78;5052961;28;20154;-76
2023/04/12 10:21:07;;;;;;;2.92;1.73;;;;;;;-148.88;100.00;74840.94;5052581;28;20032;-76
2023/04/12 10:23:32;;;;;;;3.05;1.80;;;;;;;-148.88;100.00;74853.13;5053422;28;20033;-76
2023/04/12 10:26:01;;;;;;;3.00;1.40;;;;;;;-148.88;100.00;74863.28;5054153;28;20047;-76
2023/04/12 10:28:26;;;;;;;2.65;1.60;;;;;;;-148.88;100.00;74863.28;5054228;28;20029;-75
2023/04/12 10:30:55;;;;;;;2.80;1.52;;;;;;;-148.88;100.00;74867.34;5054020;28;20098;-76
2023/04/12 10:35:51;;;;;;;1.98;1.38;;;;;;;-148.88;100.00;74871.41;5071049;28;20522;-75
2023/04/12 10:38:17;;;;;;;2.63;1.48;;;;;;;-148.88;100.00;74869.38;5055436;28;20056;-76
2023/04/12 10:41:06;;;;;;;2.30;1.40;;;;;;;-148.88;100.00;74853.13;5073524;28;20111;-75
2023/04/12 10:43:32;;;;;;;2.25;1.30;;;;;;;-148.88;100.00;74857.19;5073462;28;20117;-77
2023/04/12 10:46:02;;;;;;;2.50;1.50;;;;;;;-148.88;100.00;74853.13;5073529;28;20486;-75
2023/04/12 10:48:36;;;;;;;3.65;1.50;;;;;;;-148.88;100.00;74855.16;5073310;28;20099;-75
2023/04/12 10:51:16;;;;;;;;;;;;;;;-148.88;100.00;74849.06;5074022;28;20024;-75
2023/04/12 10:53:42;;;;;;;2.38;1.50;;;;;;;-148.88;100.00;74830.78;5055119;28;19957;-75
2023/04/12 10:56:32;;;;;;;1.92;1.33;;;;;;;-148.88;100.00;74818.59;5055018;28;20024;-75
2023/04/12 10:59:01;;;;;;;3.30;1.45;;;;;;;-148.88;100.00;74808.47;5072837;28;20020;-75
2023/04/12 11:01:28;;;;;;;2.58;1.58;;;;;;;-148.88;100.00;74818.59;5072998;28;20028;-75
2023/04/12 11:04:15;;;;;;;2.40;1.20;;;;;;;-148.88;100.00;74828.75;5072984;28;20025;-75
2023/04/12 11:06:41;;;;;;;1.98;1.20;;;;;;;-148.88;100.00;74832.81;5073033;28;20032;-75
2023/04/12 11:09:16;;;;;;;2.38;1.33;;;;;;;-148.88;100.00;74826.72;5073294;28;20025;-75
2023/04/12 11:11:41;;;;;;;2.72;1.85;;;;;;;-148.88;100.00;74826.72;5076147;28;20074;-75
2023/04/12 11:14:09;;;;;;;2.25;1.08;;;;;;;-148.88;100.00;74826.72;5073248;28;20570;-75
2023/04/12 11:17:15;;;;;;;3.78;2.20;;;;;;;-148.88;100.00;74810.50;5072757;28;20094;-75
2023/04/12 11:19:50;;;;;;;2.22;1.33;;;;;;;-148.88;100.00;74810.50;5054520;28;20043;-75
2023/04/12 11:22:18;;;;;;;4.75;1.48;;;;;;;-148.88;100.00;74794.25;5072789;28;20020;-75
2023/04/12 11:24:48;;;;;;;2.63;1.88;;;;;;;-148.88;100.00;74782.06;5072807;28;20048;-75
2023/04/12 11:27:15;;;;;;;2.13;1.27;;;;;;;-148.88;100.00;74782.06;5072583;28;20032;-75
2023/04/12 11:29:42;;;;;;;3.40;1.35;;;;;;;-148.88;100.00;74790.19;5054654;28;20021;-75